sensor_id;sensor_type;location;lat;lon;timestamp;temperature;humidity
51815;DHT22;37874;53.158;6.766;2023-03-01T00:00:19;13.70;57.40
51815;DHT22;37874;53.158;6.766;2023-03-01T00:02:45;13.80;57.50
51815;DHT22;37874;53.158;6.766;2023-03-01T00:05:10;13.70;57.60
51815;DHT22;37874;53.158;6.766;2023-03-01T00:07:36;13.70;57.40
51815;DHT22;37874;53.158;6.766;2023-03-01T00:10:02;13.70;57.50
51815;DHT22;37874;53.158;6.766;2023-03-01T00:12:27;13.70;57.60
51815;DHT22;37874;53.158;6.766;2023-03-01T00:14:53;13.70;57.60
51815;DHT22;37874;53.158;6.766;2023-03-01T00:17:19;13.70;57.50
51815;DHT22;37874;53.158;6.766;2023-03-01T00:19:44;13.70;57.40
51815;DHT22;37874;53.158;6.766;2023-03-01T00:22:10;13.70;57.60
51815;DHT22;37874;53.158;6.766;2023-03-01T00:24:35;13.60;57.60
51815;DHT22;37874;53.158;6.766;2023-03-01T00:27:01;13.60;57.50
51815;DHT22;37874;53.158;6.766;2023-03-01T00:29:27;13.60;57.60
51815;DHT22;37874;53.158;6.766;2023-03-01T00:31:52;13.60;57.40
51815;DHT22;37874;53.158;6.766;2023-03-01T00:34:18;13.70;57.60
51815;DHT22;37874;53.158;6.766;2023-03-01T00:36:44;14.50;58.10
51815;DHT22;37874;53.158;6.766;2023-03-01T00:39:14;13.60;57.40
51815;DHT22;37874;53.158;6.766;2023-03-01T00:41:41;13.60;57.60
51815;DHT22;37874;53.158;6.766;2023-03-01T00:44:06;13.60;57.50
51815;DHT22;37874;53.158;6.766;2023-03-01T00:46:32;13.60;58.10
51815;DHT22;37874;53.158;6.766;2023-03-01T00:48:59;13.40;57.60
51815;DHT22;37874;53.158;6.766;2023-03-01T00:51:28;13.60;57.40
51815;DHT22;37874;53.158;6.766;2023-03-01T00:53:55;13.60;57.60
51815;DHT22;37874;53.158;6.766;2023-03-01T00:56:22;13.50;57.60
51815;DHT22;37874;53.158;6.766;2023-03-01T00:58:48;13.50;57.50
51815;DHT22;37874;53.158;6.766;2023-03-01T01:01:32;13.50;57.50
51815;DHT22;37874;53.158;6.766;2023-03-01T01:04:06;13.50;57.60
51815;DHT22;37874;53.158;6.766;2023-03-01T01:06:35;13.40;57.60
51815;DHT22;37874;53.158;6.766;2023-03-01T01:09:03;13.50;57.70
51815;DHT22;37874;53.158;6.766;2023-03-01T01:11:30;13.50;57.70
51815;DHT22;37874;53.158;6.766;2023-03-01T01:13:56;13.50;57.60
51815;DHT22;37874;53.158;6.766;2023-03-01T01:16:23;13.50;57.70
51815;DHT22;37874;53.158;6.766;2023-03-01T01:18:49;13.50;57.80
51815;DHT22;37874;53.158;6.766;2023-03-01T01:21:17;13.50;57.80
51815;DHT22;37874;53.158;6.766;2023-03-01T01:23:44;13.50;57.90
51815;DHT22;37874;53.158;6.766;2023-03-01T01:26:16;13.50;57.80
51815;DHT22;37874;53.158;6.766;2023-03-01T01:28:42;13.50;57.70
51815;DHT22;37874;53.158;6.766;2023-03-01T01:31:08;13.50;57.70
51815;DHT22;37874;53.158;6.766;2023-03-01T01:33:34;13.50;57.60
51815;DHT22;37874;53.158;6.766;2023-03-01T01:36:00;13.40;57.50
51815;DHT22;37874;53.158;6.766;2023-03-01T01:38:25;13.40;57.60
51815;DHT22;37874;53.158;6.766;2023-03-01T01:40:51;13.40;57.50
51815;DHT22;37874;53.158;6.766;2023-03-01T01:43:26;13.40;57.60
51815;DHT22;37874;53.158;6.766;2023-03-01T01:45:55;13.40;57.60
51815;DHT22;37874;53.158;6.766;2023-03-01T01:48:24;13.40;57.30
51815;DHT22;37874;53.158;6.766;2023-03-01T01:51:17;13.40;57.50
51815;DHT22;37874;53.158;6.766;2023-03-01T01:53:45;13.40;57.50
51815;DHT22;37874;53.158;6.766;2023-03-01T01:56:13;13.40;57.30
51815;DHT22;37874;53.158;6.766;2023-03-01T01:58:40;13.40;57.30
51815;DHT22;37874;53.158;6.766;2023-03-01T02:01:07;13.40;57.30
51815;DHT22;37874;53.158;6.766;2023-03-01T02:03:36;13.40;57.30
51815;DHT22;37874;53.158;6.766;2023-03-01T02:06:31;13.40;57.30
51815;DHT22;37874;53.158;6.766;2023-03-01T02:09:02;13.40;57.30
51815;DHT22;37874;53.158;6.766;2023-03-01T02:11:30;13.40;57.30
51815;DHT22;37874;53.158;6.766;2023-03-01T02:13:56;13.30;57.30
51815;DHT22;37874;53.158;6.766;2023-03-01T02:16:22;13.30;57.30
51815;DHT22;37874;53.158;6.766;2023-03-01T02:18:49;13.30;57.30
51815;DHT22;37874;53.158;6.766;2023-03-01T02:21:25;13.30;57.30
51815;DHT22;37874;53.158;6.766;2023-03-01T02:23:54;13.30;57.30
51815;DHT22;37874;53.158;6.766;2023-03-01T02:29:03;13.30;57.20
51815;DHT22;37874;53.158;6.766;2023-03-01T02:31:31;13.30;57.40
51815;DHT22;37874;53.158;6.766;2023-03-01T02:34:21;13.30;57.30
51815;DHT22;37874;53.158;6.766;2023-03-01T02:36:49;13.30;57.20
51815;DHT22;37874;53.158;6.766;2023-03-01T02:39:30;13.30;57.40
51815;DHT22;37874;53.158;6.766;2023-03-01T02:41:57;13.20;57.30
51815;DHT22;37874;53.158;6.766;2023-03-01T02:44:24;13.30;57.30
51815;DHT22;37874;53.158;6.766;2023-03-01T02:46:52;13.20;57.40
51815;DHT22;37874;53.158;6.766;2023-03-01T02:49:30;13.20;57.30
51815;DHT22;37874;53.158;6.766;2023-03-01T02:57:32;13.20;57.30
51815;DHT22;37874;53.158;6.766;2023-03-01T03:00:03;13.20;57.20
51815;DHT22;37874;53.158;6.766;2023-03-01T03:02:32;13.20;57.20
51815;DHT22;37874;53.158;6.766;2023-03-01T03:05:10;13.20;57.30
51815;DHT22;37874;53.158;6.766;2023-03-01T03:07:39;13.20;57.20
51815;DHT22;37874;53.158;6.766;2023-03-01T03:10:07;13.20;57.30
51815;DHT22;37874;53.158;6.766;2023-03-01T03:12:33;13.20;57.40
51815;DHT22;37874;53.158;6.766;2023-03-01T03:14:59;13.20;57.30
51815;DHT22;37874;53.158;6.766;2023-03-01T03:17:25;13.10;57.10
51815;DHT22;37874;53.158;6.766;2023-03-01T03:19:50;13.20;57.10
51815;DHT22;37874;53.158;6.766;2023-03-01T03:22:16;13.10;57.20
51815;DHT22;37874;53.158;6.766;2023-03-01T03:24:41;13.10;57.30
51815;DHT22;37874;53.158;6.766;2023-03-01T03:27:07;13.10;57.30
51815;DHT22;37874;53.158;6.766;2023-03-01T03:29:33;13.10;57.40
51815;DHT22;37874;53.158;6.766;2023-03-01T03:31:59;13.10;57.30
51815;DHT22;37874;53.158;6.766;2023-03-01T03:34:25;13.00;57.30
51815;DHT22;37874;53.158;6.766;2023-03-01T03:36:55;13.10;57.30
51815;DHT22;37874;53.158;6.766;2023-03-01T03:39:25;13.40;57.60
51815;DHT22;37874;53.158;6.766;2023-03-01T03:41:52;13.10;57.50
51815;DHT22;37874;53.158;6.766;2023-03-01T03:44:17;13.10;57.40
51815;DHT22;37874;53.158;6.766;2023-03-01T03:46:43;13.10;57.30
51815;DHT22;37874;53.158;6.766;2023-03-01T03:49:08;13.10;57.40
51815;DHT22;37874;53.158;6.766;2023-03-01T03:51:34;13.00;57.00
51815;DHT22;37874;53.158;6.766;2023-03-01T03:53:59;13.00;57.20
51815;DHT22;37874;53.158;6.766;2023-03-01T03:56:25;12.10;56.90
51815;DHT22;37874;53.158;6.766;2023-03-01T03:58:51;13.00;57.20
51815;DHT22;37874;53.158;6.766;2023-03-01T04:01:17;13.00;57.20
51815;DHT22;37874;53.158;6.766;2023-03-01T04:03:43;13.00;57.30
51815;DHT22;37874;53.158;6.766;2023-03-01T04:06:12;13.00;57.30
51815;DHT22;37874;53.158;6.766;2023-03-01T04:08:38;13.00;57.20
51815;DHT22;37874;53.158;6.766;2023-03-01T04:11:05;13.00;57.30
51815;DHT22;37874;53.158;6.766;2023-03-01T04:13:51;13.00;57.20
51815;DHT22;37874;53.158;6.766;2023-03-01T04:16:17;13.00;57.30
51815;DHT22;37874;53.158;6.766;2023-03-01T04:18:43;12.90;57.00
51815;DHT22;37874;53.158;6.766;2023-03-01T04:21:09;13.00;57.20
51815;DHT22;37874;53.158;6.766;2023-03-01T04:23:35;12.90;57.00
51815;DHT22;37874;53.158;6.766;2023-03-01T04:26:01;12.90;57.00
51815;DHT22;37874;53.158;6.766;2023-03-01T04:28:28;12.90;57.10
51815;DHT22;37874;53.158;6.766;2023-03-01T04:30:55;12.90;57.20
51815;DHT22;37874;53.158;6.766;2023-03-01T04:33:21;12.90;57.20
51815;DHT22;37874;53.158;6.766;2023-03-01T04:35:47;12.90;57.40
51815;DHT22;37874;53.158;6.766;2023-03-01T04:38:16;12.90;57.30
51815;DHT22;37874;53.158;6.766;2023-03-01T04:40:42;12.90;57.40
51815;DHT22;37874;53.158;6.766;2023-03-01T04:43:09;12.90;57.50
51815;DHT22;37874;53.158;6.766;2023-03-01T04:45:35;12.90;57.40
51815;DHT22;37874;53.158;6.766;2023-03-01T04:48:00;12.90;57.40
51815;DHT22;37874;53.158;6.766;2023-03-01T04:50:26;12.90;57.40
51815;DHT22;37874;53.158;6.766;2023-03-01T04:52:52;12.80;57.20
51815;DHT22;37874;53.158;6.766;2023-03-01T04:55:18;12.80;57.40
51815;DHT22;37874;53.158;6.766;2023-03-01T04:57:44;12.80;57.40
51815;DHT22;37874;53.158;6.766;2023-03-01T05:00:11;12.80;57.30
51815;DHT22;37874;53.158;6.766;2023-03-01T05:02:58;12.80;57.30
51815;DHT22;37874;53.158;6.766;2023-03-01T05:05:27;12.80;57.30
51815;DHT22;37874;53.158;6.766;2023-03-01T05:07:57;12.80;57.90
51815;DHT22;37874;53.158;6.766;2023-03-01T05:10:24;12.80;57.30
51815;DHT22;37874;53.158;6.766;2023-03-01T05:12:50;12.80;57.30
51815;DHT22;37874;53.158;6.766;2023-03-01T05:15:18;12.80;57.30
51815;DHT22;37874;53.158;6.766;2023-03-01T05:17:44;12.80;57.40
51815;DHT22;37874;53.158;6.766;2023-03-01T05:20:10;12.80;57.20
51815;DHT22;37874;53.158;6.766;2023-03-01T05:22:36;12.70;57.20
51815;DHT22;37874;53.158;6.766;2023-03-01T05:25:03;12.80;57.40
51815;DHT22;37874;53.158;6.766;2023-03-01T05:27:29;12.80;57.40
51815;DHT22;37874;53.158;6.766;2023-03-01T05:29:55;12.70;57.30
51815;DHT22;37874;53.158;6.766;2023-03-01T05:32:21;12.70;57.20
51815;DHT22;37874;53.158;6.766;2023-03-01T05:34:47;12.70;57.10
51815;DHT22;37874;53.158;6.766;2023-03-01T05:37:13;12.70;57.20
51815;DHT22;37874;53.158;6.766;2023-03-01T05:39:39;12.70;57.10
51815;DHT22;37874;53.158;6.766;2023-03-01T05:42:05;12.70;57.00
51815;DHT22;37874;53.158;6.766;2023-03-01T05:44:31;12.70;57.20
51815;DHT22;37874;53.158;6.766;2023-03-01T05:46:57;12.70;57.20
51815;DHT22;37874;53.158;6.766;2023-03-01T05:49:22;12.70;57.20
51815;DHT22;37874;53.158;6.766;2023-03-01T05:51:52;12.70;57.00
51815;DHT22;37874;53.158;6.766;2023-03-01T05:54:19;12.70;57.20
51815;DHT22;37874;53.158;6.766;2023-03-01T05:56:44;12.70;57.10
51815;DHT22;37874;53.158;6.766;2023-03-01T05:59:10;12.70;57.00
51815;DHT22;37874;53.158;6.766;2023-03-01T06:01:36;12.70;57.10
51815;DHT22;37874;53.158;6.766;2023-03-01T06:04:03;12.60;56.90
51815;DHT22;37874;53.158;6.766;2023-03-01T06:06:29;12.60;57.00
51815;DHT22;37874;53.158;6.766;2023-03-01T06:08:55;12.70;57.00
51815;DHT22;37874;53.158;6.766;2023-03-01T06:11:21;12.60;56.90
51815;DHT22;37874;53.158;6.766;2023-03-01T06:13:47;12.60;57.60
51815;DHT22;37874;53.158;6.766;2023-03-01T06:16:13;12.60;57.10
51815;DHT22;37874;53.158;6.766;2023-03-01T06:18:40;12.60;57.00
51815;DHT22;37874;53.158;6.766;2023-03-01T06:21:06;12.60;57.00
51815;DHT22;37874;53.158;6.766;2023-03-01T06:23:32;12.60;57.10
51815;DHT22;37874;53.158;6.766;2023-03-01T06:26:00;12.60;56.90
51815;DHT22;37874;53.158;6.766;2023-03-01T06:28:25;12.80;57.20
51815;DHT22;37874;53.158;6.766;2023-03-01T06:30:51;12.60;57.10
51815;DHT22;37874;53.158;6.766;2023-03-01T06:33:18;12.60;57.10
51815;DHT22;37874;53.158;6.766;2023-03-01T06:35:46;12.60;57.70
51815;DHT22;37874;53.158;6.766;2023-03-01T06:38:12;12.60;57.20
51815;DHT22;37874;53.158;6.766;2023-03-01T06:40:40;12.60;57.00
51815;DHT22;37874;53.158;6.766;2023-03-01T06:43:06;12.60;56.80
51815;DHT22;37874;53.158;6.766;2023-03-01T06:45:33;12.60;57.00
51815;DHT22;37874;53.158;6.766;2023-03-01T06:48:06;12.60;57.00
51815;DHT22;37874;53.158;6.766;2023-03-01T06:50:33;12.50;56.80
51815;DHT22;37874;53.158;6.766;2023-03-01T06:52:59;12.50;56.80
51815;DHT22;37874;53.158;6.766;2023-03-01T06:55:24;12.50;56.80
51815;DHT22;37874;53.158;6.766;2023-03-01T06:57:57;12.50;56.80
51815;DHT22;37874;53.158;6.766;2023-03-01T07:00:24;12.50;56.70
51815;DHT22;37874;53.158;6.766;2023-03-01T07:02:52;12.50;56.70
51815;DHT22;37874;53.158;6.766;2023-03-01T07:05:18;12.50;56.70
51815;DHT22;37874;53.158;6.766;2023-03-01T07:07:43;12.50;56.70
51815;DHT22;37874;53.158;6.766;2023-03-01T07:10:09;12.50;56.70
51815;DHT22;37874;53.158;6.766;2023-03-01T07:12:35;12.50;56.70
51815;DHT22;37874;53.158;6.766;2023-03-01T07:15:01;12.60;56.80
51815;DHT22;37874;53.158;6.766;2023-03-01T07:17:26;12.50;56.80
51815;DHT22;37874;53.158;6.766;2023-03-01T07:19:52;12.50;56.80
51815;DHT22;37874;53.158;6.766;2023-03-01T07:22:17;12.50;56.70
51815;DHT22;37874;53.158;6.766;2023-03-01T07:24:43;12.50;56.70
51815;DHT22;37874;53.158;6.766;2023-03-01T07:27:09;12.80;56.90
51815;DHT22;37874;53.158;6.766;2023-03-01T07:29:35;12.60;56.80
51815;DHT22;37874;53.158;6.766;2023-03-01T07:32:04;12.50;56.70
51815;DHT22;37874;53.158;6.766;2023-03-01T07:34:30;12.50;56.70
51815;DHT22;37874;53.158;6.766;2023-03-01T07:36:56;12.50;56.70
51815;DHT22;37874;53.158;6.766;2023-03-01T07:39:22;12.50;56.70
51815;DHT22;37874;53.158;6.766;2023-03-01T07:41:51;12.50;56.70
51815;DHT22;37874;53.158;6.766;2023-03-01T07:44:16;12.50;56.70
51815;DHT22;37874;53.158;6.766;2023-03-01T07:46:43;12.60;56.80
51815;DHT22;37874;53.158;6.766;2023-03-01T07:49:09;12.50;56.80
51815;DHT22;37874;53.158;6.766;2023-03-01T07:51:35;12.60;56.80
51815;DHT22;37874;53.158;6.766;2023-03-01T07:54:01;12.60;56.80
51815;DHT22;37874;53.158;6.766;2023-03-01T07:56:26;12.60;56.80
51815;DHT22;37874;53.158;6.766;2023-03-01T07:58:52;12.60;56.80
51815;DHT22;37874;53.158;6.766;2023-03-01T08:01:20;12.60;56.40
51815;DHT22;37874;53.158;6.766;2023-03-01T08:03:46;12.70;56.40
51815;DHT22;37874;53.158;6.766;2023-03-01T08:06:14;12.60;56.40
51815;DHT22;37874;53.158;6.766;2023-03-01T08:08:40;12.60;56.40
51815;DHT22;37874;53.158;6.766;2023-03-01T08:11:08;12.60;56.40
51815;DHT22;37874;53.158;6.766;2023-03-01T08:13:35;12.60;56.40
51815;DHT22;37874;53.158;6.766;2023-03-01T08:16:02;12.70;56.40
51815;DHT22;37874;53.158;6.766;2023-03-01T08:18:28;12.60;56.30
51815;DHT22;37874;53.158;6.766;2023-03-01T08:20:53;12.60;56.30
51815;DHT22;37874;53.158;6.766;2023-03-01T08:23:19;12.70;56.40
51815;DHT22;37874;53.158;6.766;2023-03-01T08:25:44;12.60;56.30
51815;DHT22;37874;53.158;6.766;2023-03-01T08:28:10;12.60;56.40
51815;DHT22;37874;53.158;6.766;2023-03-01T08:30:35;12.70;56.30
51815;DHT22;37874;53.158;6.766;2023-03-01T08:33:01;12.60;56.20
51815;DHT22;37874;53.158;6.766;2023-03-01T08:35:27;12.60;56.30
51815;DHT22;37874;53.158;6.766;2023-03-01T08:37:52;12.60;56.40
51815;DHT22;37874;53.158;6.766;2023-03-01T08:40:18;12.60;56.80
51815;DHT22;37874;53.158;6.766;2023-03-01T08:42:43;12.60;56.30
51815;DHT22;37874;53.158;6.766;2023-03-01T08:45:10;12.70;56.30
51815;DHT22;37874;53.158;6.766;2023-03-01T08:47:36;12.60;56.30
51815;DHT22;37874;53.158;6.766;2023-03-01T08:50:03;12.70;56.30
51815;DHT22;37874;53.158;6.766;2023-03-01T08:52:29;12.70;56.20
51815;DHT22;37874;53.158;6.766;2023-03-01T08:54:56;12.60;56.10
51815;DHT22;37874;53.158;6.766;2023-03-01T08:57:21;12.70;56.30
51815;DHT22;37874;53.158;6.766;2023-03-01T08:59:47;12.80;56.30
51815;DHT22;37874;53.158;6.766;2023-03-01T09:02:16;12.70;56.30
51815;DHT22;37874;53.158;6.766;2023-03-01T09:04:42;12.70;56.20
51815;DHT22;37874;53.158;6.766;2023-03-01T09:07:09;12.70;56.20
51815;DHT22;37874;53.158;6.766;2023-03-01T09:09:35;12.70;56.20
51815;DHT22;37874;53.158;6.766;2023-03-01T09:12:01;12.70;56.20
51815;DHT22;37874;53.158;6.766;2023-03-01T09:14:27;12.70;56.20
51815;DHT22;37874;53.158;6.766;2023-03-01T09:16:52;12.70;56.10
51815;DHT22;37874;53.158;6.766;2023-03-01T09:19:18;12.70;56.00
51815;DHT22;37874;53.158;6.766;2023-03-01T09:21:43;12.70;56.00
51815;DHT22;37874;53.158;6.766;2023-03-01T09:24:19;12.70;56.10
51815;DHT22;37874;53.158;6.766;2023-03-01T09:26:45;12.70;56.10
51815;DHT22;37874;53.158;6.766;2023-03-01T09:29:12;12.70;56.10
51815;DHT22;37874;53.158;6.766;2023-03-01T09:31:38;12.70;56.10
51815;DHT22;37874;53.158;6.766;2023-03-01T09:34:04;12.70;56.10
51815;DHT22;37874;53.158;6.766;2023-03-01T09:36:30;12.70;56.20
51815;DHT22;37874;53.158;6.766;2023-03-01T09:38:57;12.70;56.20
51815;DHT22;37874;53.158;6.766;2023-03-01T09:44:05;12.70;56.10
51815;DHT22;37874;53.158;6.766;2023-03-01T09:46:43;12.70;56.20
51815;DHT22;37874;53.158;6.766;2023-03-01T09:49:35;12.70;56.20
51815;DHT22;37874;53.158;6.766;2023-03-01T09:54:52;12.70;56.10
51815;DHT22;37874;53.158;6.766;2023-03-01T10:02:50;13.00;56.20
51815;DHT22;37874;53.158;6.766;2023-03-01T10:05:41;12.80;56.20
51815;DHT22;37874;53.158;6.766;2023-03-01T10:10:38;12.80;56.30
51815;DHT22;37874;53.158;6.766;2023-03-01T10:16:06;12.80;56.20
51815;DHT22;37874;53.158;6.766;2023-03-01T10:18:35;12.80;56.30
51815;DHT22;37874;53.158;6.766;2023-03-01T10:23:36;12.80;56.20
51815;DHT22;37874;53.158;6.766;2023-03-01T10:30:59;13.00;56.30
51815;DHT22;37874;53.158;6.766;2023-03-01T10:33:37;12.90;56.20
51815;DHT22;37874;53.158;6.766;2023-03-01T10:36:05;12.90;56.20
51815;DHT22;37874;53.158;6.766;2023-03-01T10:38:48;12.90;56.20
51815;DHT22;37874;53.158;6.766;2023-03-01T10:41:14;12.90;56.10
51815;DHT22;37874;53.158;6.766;2023-03-01T10:43:49;12.90;56.10
51815;DHT22;37874;53.158;6.766;2023-03-01T10:49:20;12.90;56.00
51815;DHT22;37874;53.158;6.766;2023-03-01T10:51:49;13.00;56.10
51815;DHT22;37874;53.158;6.766;2023-03-01T10:54:28;12.90;56.10
51815;DHT22;37874;53.158;6.766;2023-03-01T10:56:56;13.00;56.20
51815;DHT22;37874;53.158;6.766;2023-03-01T10:59:33;13.00;56.20
51815;DHT22;37874;53.158;6.766;2023-03-01T11:02:29;13.00;56.10
51815;DHT22;37874;53.158;6.766;2023-03-01T11:07:55;13.00;56.30
51815;DHT22;37874;53.158;6.766;2023-03-01T11:10:33;13.00;56.20
51815;DHT22;37874;53.158;6.766;2023-03-01T11:13:15;13.10;56.30
51815;DHT22;37874;53.158;6.766;2023-03-01T11:15:41;13.10;56.20
51815;DHT22;37874;53.158;6.766;2023-03-01T11:18:21;13.10;56.20
51815;DHT22;37874;53.158;6.766;2023-03-01T11:20:48;13.20;56.00
51815;DHT22;37874;53.158;6.766;2023-03-01T11:23:16;13.30;55.80
51815;DHT22;37874;53.158;6.766;2023-03-01T11:26:04;13.50;55.50
51815;DHT22;37874;53.158;6.766;2023-03-01T11:28:31;13.70;55.10
51815;DHT22;37874;53.158;6.766;2023-03-01T11:31:06;13.90;54.70
51815;DHT22;37874;53.158;6.766;2023-03-01T11:33:49;14.00;54.20
51815;DHT22;37874;53.158;6.766;2023-03-01T11:36:34;14.20;53.80
51815;DHT22;37874;53.158;6.766;2023-03-01T11:39:09;14.40;53.60
51815;DHT22;37874;53.158;6.766;2023-03-01T11:41:37;14.40;53.00
51815;DHT22;37874;53.158;6.766;2023-03-01T11:44:12;14.60;53.00
51815;DHT22;37874;53.158;6.766;2023-03-01T11:49:54;14.80;52.80
51815;DHT22;37874;53.158;6.766;2023-03-01T11:53:04;14.90;52.70
51815;DHT22;37874;53.158;6.766;2023-03-01T11:58:45;15.00;52.20
51815;DHT22;37874;53.158;6.766;2023-03-01T12:04:17;15.20;52.20
51815;DHT22;37874;53.158;6.766;2023-03-01T12:07:00;15.20;51.60
51815;DHT22;37874;53.158;6.766;2023-03-01T12:10:13;15.20;51.50
51815;DHT22;37874;53.158;6.766;2023-03-01T12:21:02;15.50;50.90
51815;DHT22;37874;53.158;6.766;2023-03-01T12:29:34;15.30;51.70
51815;DHT22;37874;53.158;6.766;2023-03-01T12:45:48;14.60;52.60
51815;DHT22;37874;53.158;6.766;2023-03-01T12:51:05;14.60;52.90
51815;DHT22;37874;53.158;6.766;2023-03-01T12:54:11;14.60;53.10
51815;DHT22;37874;53.158;6.766;2023-03-01T12:56:31;14.50;53.10
51815;DHT22;37874;53.158;6.766;2023-03-01T12:59:17;14.50;53.10
51815;DHT22;37874;53.158;6.766;2023-03-01T13:07:22;14.50;53.50
51815;DHT22;37874;53.158;6.766;2023-03-01T13:12:47;14.50;53.50
51815;DHT22;37874;53.158;6.766;2023-03-01T13:17:48;14.60;53.50
51815;DHT22;37874;53.158;6.766;2023-03-01T13:20:17;14.60;53.60
51815;DHT22;37874;53.158;6.766;2023-03-01T13:23:47;14.60;53.50
51815;DHT22;37874;53.158;6.766;2023-03-01T13:28:46;14.60;53.60
51815;DHT22;37874;53.158;6.766;2023-03-01T13:33:52;14.70;53.60
51815;DHT22;37874;53.158;6.766;2023-03-01T13:47:17;14.80;53.40
51815;DHT22;37874;53.158;6.766;2023-03-01T13:49:58;14.80;53.40
51815;DHT22;37874;53.158;6.766;2023-03-01T13:52:44;14.90;53.40
51815;DHT22;37874;53.158;6.766;2023-03-01T13:57:42;15.10;53.10
51815;DHT22;37874;53.158;6.766;2023-03-01T14:03:08;15.20;52.90
51815;DHT22;37874;53.158;6.766;2023-03-01T14:05:38;15.20;52.80
51815;DHT22;37874;53.158;6.766;2023-03-01T14:08:14;15.30;52.70
51815;DHT22;37874;53.158;6.766;2023-03-01T14:17:29;15.70;52.10
51815;DHT22;37874;53.158;6.766;2023-03-01T14:20:00;15.80;51.80
51815;DHT22;37874;53.158;6.766;2023-03-01T14:22:34;15.90;51.60
51815;DHT22;37874;53.158;6.766;2023-03-01T14:28:30;16.10;51.10
51815;DHT22;37874;53.158;6.766;2023-03-01T14:34:27;16.30;50.70
51815;DHT22;37874;53.158;6.766;2023-03-01T14:36:53;16.40;50.50
51815;DHT22;37874;53.158;6.766;2023-03-01T14:39:24;16.50;50.20
51815;DHT22;37874;53.158;6.766;2023-03-01T14:41:51;16.50;50.10
51815;DHT22;37874;53.158;6.766;2023-03-01T14:44:22;16.60;49.90
51815;DHT22;37874;53.158;6.766;2023-03-01T14:46:53;16.60;49.80
51815;DHT22;37874;53.158;6.766;2023-03-01T14:49:26;16.70;49.80
51815;DHT22;37874;53.158;6.766;2023-03-01T14:52:01;17.00;49.70
51815;DHT22;37874;53.158;6.766;2023-03-01T14:54:44;16.90;49.50
51815;DHT22;37874;53.158;6.766;2023-03-01T14:57:23;16.90;49.30
51815;DHT22;37874;53.158;6.766;2023-03-01T15:00:19;17.10;49.10
51815;DHT22;37874;53.158;6.766;2023-03-01T15:02:48;17.10;49.00
51815;DHT22;37874;53.158;6.766;2023-03-01T15:05:15;17.20;48.70
51815;DHT22;37874;53.158;6.766;2023-03-01T15:07:45;17.30;48.50
51815;DHT22;37874;53.158;6.766;2023-03-01T15:10:56;17.30;48.30
51815;DHT22;37874;53.158;6.766;2023-03-01T15:13:29;17.50;48.30
51815;DHT22;37874;53.158;6.766;2023-03-01T15:16:03;17.50;48.10
51815;DHT22;37874;53.158;6.766;2023-03-01T15:18:30;17.60;48.10
51815;DHT22;37874;53.158;6.766;2023-03-01T15:21:09;17.60;47.90
51815;DHT22;37874;53.158;6.766;2023-03-01T15:23:37;17.60;47.80
51815;DHT22;37874;53.158;6.766;2023-03-01T15:26:40;17.70;47.90
51815;DHT22;37874;53.158;6.766;2023-03-01T15:29:22;17.70;47.90
51815;DHT22;37874;53.158;6.766;2023-03-01T15:32:03;17.70;47.90
51815;DHT22;37874;53.158;6.766;2023-03-01T15:34:35;17.70;47.70
51815;DHT22;37874;53.158;6.766;2023-03-01T15:37:32;17.70;47.90
51815;DHT22;37874;53.158;6.766;2023-03-01T15:39:54;17.70;47.80
51815;DHT22;37874;53.158;6.766;2023-03-01T15:47:50;17.50;48.00
51815;DHT22;37874;53.158;6.766;2023-03-01T15:50:23;17.60;48.80
51815;DHT22;37874;53.158;6.766;2023-03-01T15:52:50;17.50;48.20
51815;DHT22;37874;53.158;6.766;2023-03-01T15:55:22;17.50;48.40
51815;DHT22;37874;53.158;6.766;2023-03-01T15:57:48;17.50;48.60
51815;DHT22;37874;53.158;6.766;2023-03-01T16:00:16;17.40;48.50
51815;DHT22;37874;53.158;6.766;2023-03-01T16:02:44;17.50;48.60
51815;DHT22;37874;53.158;6.766;2023-03-01T16:05:22;17.40;48.60
51815;DHT22;37874;53.158;6.766;2023-03-01T16:07:52;17.40;48.80
51815;DHT22;37874;53.158;6.766;2023-03-01T16:10:18;17.40;48.80
51815;DHT22;37874;53.158;6.766;2023-03-01T16:12:47;17.40;48.90
51815;DHT22;37874;53.158;6.766;2023-03-01T16:15:23;17.30;48.90
51815;DHT22;37874;53.158;6.766;2023-03-01T16:17:50;17.30;49.00
51815;DHT22;37874;53.158;6.766;2023-03-01T16:20:17;17.30;49.20
51815;DHT22;37874;53.158;6.766;2023-03-01T16:22:44;17.30;49.30
51815;DHT22;37874;53.158;6.766;2023-03-01T16:25:15;17.20;49.40
51815;DHT22;37874;53.158;6.766;2023-03-01T16:27:45;17.20;49.60
51815;DHT22;37874;53.158;6.766;2023-03-01T16:30:13;16.90;49.50
51815;DHT22;37874;53.158;6.766;2023-03-01T16:32:43;17.10;49.70
51815;DHT22;37874;53.158;6.766;2023-03-01T16:35:14;17.00;50.00
51815;DHT22;37874;53.158;6.766;2023-03-01T16:37:40;16.90;50.10
51815;DHT22;37874;53.158;6.766;2023-03-01T16:42:44;16.70;50.60
51815;DHT22;37874;53.158;6.766;2023-03-01T16:45:10;16.50;50.80
51815;DHT22;37874;53.158;6.766;2023-03-01T16:47:38;16.40;51.10
51815;DHT22;37874;53.158;6.766;2023-03-01T16:50:04;16.40;51.30
51815;DHT22;37874;53.158;6.766;2023-03-01T16:52:30;16.30;51.70
51815;DHT22;37874;53.158;6.766;2023-03-01T16:54:56;16.10;51.80
51815;DHT22;37874;53.158;6.766;2023-03-01T16:57:22;16.10;52.10
51815;DHT22;37874;53.158;6.766;2023-03-01T16:59:52;16.00;52.40
51815;DHT22;37874;53.158;6.766;2023-03-01T17:02:22;15.90;52.50
51815;DHT22;37874;53.158;6.766;2023-03-01T17:04:54;15.90;52.80
51815;DHT22;37874;53.158;6.766;2023-03-01T17:07:23;15.80;53.00
